Time;durP1;ratioP1;P1;durP2;ratioP2;P2;SDS_P1;SDS_P2;PMS_P1;PMS_P2;Temp;Humidity;BMP_temperature;BMP_pressure;BME280_temperature;BME280_humidity;BME280_pressure;Samples;Min_cycle;Max_cycle;Signal;HPM_P1;HPM_P2
2021/05/10 00:00:15;;;;;;;1.63;1.00;;;18.90;41.50;;;;;;4947483;29;20047;-66
2021/05/10 00:02:41;;;;;;;2.22;1.00;;;18.90;41.70;;;;;;4947397;29;20042;-66
2021/05/10 00:05:07;;;;;;;2.35;1.33;;;18.90;41.50;;;;;;4947142;29;20038;-66
2021/05/10 00:07:32;;;;;;;3.65;1.00;;;18.90;41.50;;;;;;4948659;29;20094;-66
2021/05/10 00:09:59;;;;;;;5.25;1.10;;;19.00;40.90;;;;;;4947689;29;20056;-66
2021/05/10 00:12:25;;;;;;;1.60;1.00;;;18.90;39.90;;;;;;4947511;29;20050;-66
2021/05/10 00:14:50;;;;;;;3.47;1.10;;;19.00;40.60;;;;;;4947119;29;20103;-66
2021/05/10 00:17:16;;;;;;;3.05;1.30;;;19.00;40.60;;;;;;4947018;29;20036;-66
2021/05/10 00:19:41;;;;;;;3.22;1.00;;;19.00;40.10;;;;;;4931748;29;20036;-66
2021/05/10 00:22:07;;;;;;;2.95;1.00;;;19.00;39.80;;;;;;4930103;29;20043;-66
2021/05/10 00:24:32;;;;;;;2.63;1.10;;;19.10;40.30;;;;;;4947358;29;20036;-66
2021/05/10 00:26:58;;;;;;;1.50;1.00;;;19.10;40.30;;;;;;4947192;29;20043;-66
2021/05/10 00:29:23;;;;;;;2.05;1.15;;;19.10;40.90;;;;;;4947099;29;20330;-66
2021/05/10 00:31:49;;;;;;;3.42;1.10;;;19.10;40.20;;;;;;4946725;29;20031;-66
2021/05/10 00:34:14;;;;;;;2.38;0.90;;;19.10;40.20;;;;;;4948356;29;20059;-66
2021/05/10 00:36:40;;;;;;;1.38;1.05;;;19.10;40.20;;;;;;4947062;29;20134;-66
2021/05/10 00:39:06;;;;;;;3.10;1.30;;;19.10;40.30;;;;;;4947056;29;20259;-66
2021/05/10 00:41:32;;;;;;;2.85;1.10;;;19.00;39.60;;;;;;4929984;29;20055;-66
2021/05/10 00:43:57;;;;;;;1.67;0.85;;;19.10;39.80;;;;;;4946486;29;20095;-66
2021/05/10 00:46:23;;;;;;;4.22;1.10;;;19.10;39.80;;;;;;4948713;29;20087;-66
2021/05/10 00:48:48;;;;;;;3.00;1.15;;;19.10;40.10;;;;;;4946942;29;20323;-66
2021/05/10 00:51:14;;;;;;;2.55;1.00;;;19.10;40.10;;;;;;4946441;29;20036;-66
2021/05/10 00:53:39;;;;;;;3.03;0.90;;;19.00;40.90;;;;;;4946654;29;20322;-66
2021/05/10 00:56:05;;;;;;;1.30;0.82;;;19.00;41.60;;;;;;4946193;29;20036;-66
2021/05/10 00:58:31;;;;;;;3.67;1.15;;;18.90;40.60;;;;;;4948181;29;20098;-66
2021/05/10 01:00:57;;;;;;;2.65;1.00;;;19.00;40.20;;;;;;4946558;29;20051;-66
2021/05/10 01:03:22;;;;;;;2.28;1.15;;;18.90;41.70;;;;;;4946167;29;20047;-66
2021/05/10 01:05:48;;;;;;;2.35;1.20;;;18.80;42.90;;;;;;4929528;29;20055;-66
2021/05/10 01:08:13;;;;;;;2.45;1.05;;;18.80;43.00;;;;;;4946027;29;20054;-66
2021/05/10 01:10:39;;;;;;;2.03;1.40;;;18.80;42.80;;;;;;4947641;29;20039;-66
2021/05/10 01:13:04;;;;;;;3.90;1.17;;;18.70;43.10;;;;;;4946439;29;20043;-66
2021/05/10 01:15:30;;;;;;;1.67;1.00;;;18.60;43.00;;;;;;4946160;29;20036;-66
2021/05/10 01:17:56;;;;;;;3.85;1.20;;;18.60;42.60;;;;;;4945948;29;20035;-66
2021/05/10 01:20:22;;;;;;;2.95;0.98;;;18.70;42.30;;;;;;4945519;29;20036;-66
2021/05/10 01:22:52;;;;;;;2.15;1.20;;;18.70;41.90;;;;;;4945832;29;20306;-66
2021/05/10 01:25:29;;;;;;;1.80;0.88;;;18.70;42.20;;;;;;4947711;29;20032;-66
2021/05/10 01:27:54;;;;;;;2.33;0.90;;;18.60;41.40;;;;;;4945911;29;20050;-66
2021/05/10 01:30:30;;;;;;;3.45;1.27;;;18.60;41.50;;;;;;4945982;29;20047;-66
2021/05/10 01:32:56;;;;;;;2.13;1.05;;;18.70;41.60;;;;;;4928837;29;20055;-66
2021/05/10 01:35:24;;;;;;;1.75;0.93;;;18.60;41.10;;;;;;4945448;29;20343;-66
2021/05/10 01:37:49;;;;;;;3.90;1.00;;;18.60;41.20;;;;;;4945368;29;20208;-66
2021/05/10 01:40:15;;;;;;;2.70;1.23;;;18.60;41.20;;;;;;4947429;29;20030;-66
2021/05/10 01:42:41;;;;;;;1.27;1.00;;;18.60;41.00;;;;;;4945709;29;20227;-66
2021/05/10 01:45:07;;;;;;;5.10;1.30;;;18.50;41.20;;;;;;4945569;29;20046;-66
2021/05/10 01:47:32;;;;;;;1.35;1.00;;;18.50;41.90;;;;;;4945507;29;20071;-66
2021/05/10 01:49:58;;;;;;;1.67;1.10;;;18.40;42.80;;;;;;4945460;29;20243;-66
2021/05/10 01:52:23;;;;;;;2.70;1.10;;;18.30;43.90;;;;;;4947437;29;20035;-66
2021/05/10 01:54:50;;;;;;;4.05;1.30;;;18.30;44.70;;;;;;4928712;29;20031;-66
2021/05/10 01:57:17;;;;;;;2.50;1.30;;;18.30;43.70;;;;;;4945333;29;20280;-66
2021/05/10 01:59:42;;;;;;;2.95;1.10;;;18.30;43.70;;;;;;4945192;29;20167;-66
2021/05/10 02:02:08;;;;;;;2.42;0.93;;;18.30;43.10;;;;;;4945109;29;20036;-66
2021/05/10 02:05:04;;;;;;;5.28;1.25;;;18.30;43.30;;;;;;4946847;29;20036;-66
2021/05/10 02:07:30;;;;;;;2.22;0.95;;;18.30;43.10;;;;;;4946084;29;20028;-66
2021/05/10 02:09:55;;;;;;;2.88;1.17;;;18.20;44.20;;;;;;4945599;29;20159;-66
2021/05/10 02:12:21;;;;;;;2.00;0.98;;;18.20;45.30;;;;;;4944912;29;20066;-66
2021/05/10 02:14:47;;;;;;;3.15;1.10;;;18.10;46.30;;;;;;4945153;29;20039;-66
2021/05/10 02:17:13;;;;;;;1.80;1.13;;;17.90;47.40;;;;;;4945203;29;20231;-66
2021/05/10 02:19:38;;;;;;;3.13;1.30;;;17.90;47.90;;;;;;4946945;29;20036;-66
2021/05/10 02:22:04;;;;;;;6.03;1.10;;;17.80;48.30;;;;;;4945240;29;20072;-66
2021/05/10 02:24:29;;;;;;;2.40;1.10;;;17.80;48.60;;;;;;4945381;29;20050;-66
2021/05/10 02:26:55;;;;;;;3.35;1.23;;;17.80;47.70;;;;;;4945044;29;20098;-66
2021/05/10 02:29:20;;;;;;;1.90;1.17;;;17.80;47.20;;;;;;4945402;29;20276;-67
2021/05/10 02:31:46;;;;;;;3.00;1.27;;;17.80;47.90;;;;;;4947945;29;20063;-66
2021/05/10 02:34:12;;;;;;;2.25;1.30;;;17.60;48.40;;;;;;4950485;29;20036;-66
2021/05/10 02:36:38;;;;;;;3.53;1.10;;;17.50;48.80;;;;;;4949268;29;20039;-66
2021/05/10 02:39:03;;;;;;;1.85;1.05;;;17.60;48.70;;;;;;4949190;29;20042;-66
2021/05/10 02:41:29;;;;;;;3.78;1.30;;;17.40;49.30;;;;;;4948858;29;20036;-66
2021/05/10 02:43:54;;;;;;;4.50;1.35;;;17.30;49.30;;;;;;4948784;29;20278;-66
2021/05/10 02:46:20;;;;;;;2.50;1.20;;;17.20;50.30;;;;;;4950604;29;20047;-66
2021/05/10 02:48:45;;;;;;;4.20;1.35;;;17.30;49.10;;;;;;4949090;29;20055;-66
2021/05/10 02:51:11;;;;;;;3.45;1.40;;;17.30;49.20;;;;;;4949115;29;20346;-66
2021/05/10 02:53:36;;;;;;;3.67;1.10;;;17.20;49.50;;;;;;4948453;29;20079;-66
2021/05/10 02:56:02;;;;;;;2.28;1.30;;;17.20;49.40;;;;;;4948447;29;20224;-66
2021/05/10 02:58:27;;;;;;;2.60;1.20;;;17.20;48.90;;;;;;4950125;29;20035;-66
2021/05/10 03:00:53;;;;;;;4.38;1.27;;;17.20;48.50;;;;;;4948748;29;20063;-66
2021/05/10 03:03:18;;;;;;;3.10;1.27;;;17.20;48.10;;;;;;4948358;29;20043;-66
2021/05/10 03:05:45;;;;;;;2.35;1.30;;;17.30;47.80;;;;;;4948656;29;20039;-66
2021/05/10 03:08:10;;;;;;;6.45;1.42;;;17.20;48.80;;;;;;4948201;29;20060;-66
2021/05/10 03:10:36;;;;;;;5.38;1.52;;;17.20;49.40;;;;;;4950343;29;20035;-66
2021/05/10 03:13:02;;;;;;;7.38;1.42;;;17.10;49.80;;;;;;4948357;29;20336;-66
2021/05/10 03:15:27;;;;;;;3.65;1.30;;;17.10;48.40;;;;;;4948375;29;20102;-66
2021/05/10 03:17:53;;;;;;;7.45;1.80;;;17.00;49.30;;;;;;4948442;29;20046;-66
2021/05/10 03:20:20;;;;;;;7.00;1.45;;;17.10;48.00;;;;;;4931237;29;20040;-66
2021/05/10 03:22:46;;;;;;;7.10;1.40;;;17.10;47.50;;;;;;4948046;29;20046;-67
2021/05/10 03:25:11;;;;;;;2.08;1.30;;;17.00;47.70;;;;;;4950162;29;20031;-66
2021/05/10 03:27:39;;;;;;;2.38;1.17;;;16.90;47.40;;;;;;4948272;29;20382;-66
2021/05/10 03:30:12;;;;;;;2.40;1.40;;;17.00;47.70;;;;;;4947972;29;20067;-66
2021/05/10 03:32:37;;;;;;;4.30;1.50;;;17.00;48.70;;;;;;4947744;29;20054;-66
2021/05/10 03:35:04;;;;;;;8.50;1.70;;;16.90;48.90;;;;;;4947850;29;20051;-66
2021/05/10 03:37:29;;;;;;;5.97;1.75;;;17.00;48.90;;;;;;4949660;29;20059;-66
2021/05/10 03:39:55;;;;;;;3.80;1.52;;;17.00;49.50;;;;;;4948200;29;20044;-66
2021/05/10 03:42:20;;;;;;;2.78;1.33;;;16.90;49.70;;;;;;4946909;29;20036;-66
2021/05/10 03:44:46;;;;;;;3.83;1.45;;;16.90;50.10;;;;;;4947824;29;20046;-66
2021/05/10 03:47:11;;;;;;;3.05;1.27;;;16.90;50.50;;;;;;4947389;29;20039;-66
2021/05/10 03:49:37;;;;;;;3.80;1.40;;;16.90;51.10;;;;;;4949210;29;20267;-66
2021/05/10 03:52:02;;;;;;;4.22;1.40;;;16.70;52.30;;;;;;4947894;29;20035;-66
2021/05/10 03:54:28;;;;;;;6.25;1.90;;;16.70;53.00;;;;;;4947397;29;20040;-66
2021/05/10 03:56:53;;;;;;;9.63;1.88;;;16.80;51.30;;;;;;4930467;29;20036;-66
2021/05/10 03:59:19;;;;;;;3.35;1.40;;;16.80;50.30;;;;;;4947184;29;20047;-66
2021/05/10 04:01:44;;;;;;;4.07;1.50;;;16.70;49.50;;;;;;4947537;29;20248;-66
2021/05/10 04:04:22;;;;;;;2.72;1.30;;;16.70;48.70;;;;;;4948908;29;20223;-66
2021/05/10 04:07:06;;;;;;;3.30;1.20;;;16.80;48.50;;;;;;4947850;29;20220;-66
2021/05/10 04:15:00;;;;;;;5.60;1.52;;;16.80;48.50;;;;;;4947306;29;20055;-66
2021/05/10 04:17:26;;;;;;;8.48;1.45;;;16.80;49.30;;;;;;4947062;29;20039;-66
2021/05/10 04:19:51;;;;;;;3.58;1.20;;;16.80;49.10;;;;;;4947244;29;20067;-66
2021/05/10 04:22:17;;;;;;;2.75;1.20;;;16.70;48.00;;;;;;4948885;29;20078;-66
2021/05/10 04:24:42;;;;;;;3.60;1.40;;;16.80;48.20;;;;;;4947401;29;20047;-66
2021/05/10 04:27:08;;;;;;;8.02;1.60;;;16.80;49.30;;;;;;4946871;29;20234;-66
2021/05/10 04:29:34;;;;;;;4.00;1.42;;;16.80;49.60;;;;;;4946685;29;20073;-66
2021/05/10 04:31:59;;;;;;;4.10;1.40;;;16.80;50.00;;;;;;4946918;29;20039;-66
2021/05/10 04:34:25;;;;;;;8.05;1.85;;;16.80;48.20;;;;;;4931536;29;20223;-66
2021/05/10 04:36:50;;;;;;;6.50;1.38;;;16.80;48.40;;;;;;4947231;29;20044;-66
2021/05/10 04:39:16;;;;;;;3.35;1.40;;;16.80;48.00;;;;;;4946659;29;20039;-66
2021/05/10 04:41:41;;;;;;;7.20;1.48;;;16.80;48.20;;;;;;4946608;29;20047;-66
2021/05/10 04:44:07;;;;;;;4.38;1.60;;;16.80;48.00;;;;;;4946480;29;20102;-66
2021/05/10 04:46:32;;;;;;;2.58;1.52;;;16.80;47.70;;;;;;4948631;29;20259;-66
2021/05/10 04:48:58;;;;;;;5.32;1.38;;;16.90;47.80;;;;;;4947069;29;20079;-66
2021/05/10 04:51:23;;;;;;;2.60;1.20;;;16.90;47.60;;;;;;4946397;29;20036;-66
2021/05/10 04:53:49;;;;;;;3.83;1.30;;;17.00;47.50;;;;;;4946211;29;20044;-66
2021/05/10 04:56:14;;;;;;;8.30;1.48;;;17.10;47.90;;;;;;4946069;29;20036;-66
2021/05/10 04:58:40;;;;;;;6.15;1.45;;;17.10;48.80;;;;;;4948471;29;20028;-67
2021/05/10 05:01:06;;;;;;;4.28;1.67;;;17.10;50.30;;;;;;4946808;29;20055;-67
2021/05/10 05:03:31;;;;;;;2.63;1.30;;;17.10;49.40;;;;;;4946643;29;20193;-67
2021/05/10 05:05:57;;;;;;;3.25;1.20;;;17.20;49.30;;;;;;4946312;29;20062;-66
2021/05/10 05:08:22;;;;;;;3.72;1.02;;;17.20;49.00;;;;;;4945984;29;20043;-66
2021/05/10 05:10:48;;;;;;;5.95;1.33;;;17.20;48.60;;;;;;4946226;29;20055;-66
2021/05/10 05:13:26;;;;;;;3.97;1.45;;;17.30;48.30;;;;;;4947805;29;20031;-66
2021/05/10 05:15:52;;;;;;;4.60;1.23;;;17.30;47.80;;;;;;4946276;29;20036;-67
2021/05/10 05:18:18;;;;;;;2.20;1.15;;;17.30;48.10;;;;;;4946134;29;20335;-66
2021/05/10 05:20:43;;;;;;;3.40;1.20;;;17.40;47.90;;;;;;4946047;29;20040;-66
2021/05/10 05:23:22;;;;;;;3.78;1.10;;;17.40;48.00;;;;;;4945703;29;20043;-66
2021/05/10 05:25:53;;;;;;;2.90;1.30;;;17.40;47.30;;;;;;4945914;29;20032;-66
2021/05/10 05:28:19;;;;;;;2.20;1.17;;;17.50;47.70;;;;;;4947659;29;20051;-67
2021/05/10 05:30:45;;;;;;;4.40;1.27;;;17.50;47.40;;;;;;4945979;29;20050;-67
2021/05/10 05:33:11;;;;;;;3.85;1.20;;;17.60;47.40;;;;;;4945693;29;20107;-66
2021/05/10 05:35:36;;;;;;;2.85;1.45;;;17.60;47.60;;;;;;4945465;29;20035;-67
2021/05/10 05:38:04;;;;;;;5.63;1.38;;;17.60;47.80;;;;;;4945646;29;20331;-66
2021/05/10 05:40:29;;;;;;;4.55;1.60;;;17.60;47.80;;;;;;4947687;29;20040;-67
2021/05/10 05:42:55;;;;;;;9.43;1.40;;;17.70;47.90;;;;;;4945822;29;20232;-66
2021/05/10 05:45:21;;;;;;;5.82;1.48;;;17.80;48.40;;;;;;4945597;29;20032;-66
2021/05/10 05:47:46;;;;;;;5.78;1.45;;;17.80;48.30;;;;;;4945273;29;20338;-66
2021/05/10 05:50:12;;;;;;;5.80;1.45;;;17.80;48.60;;;;;;4945179;29;20039;-67
2021/05/10 05:52:38;;;;;;;6.65;1.73;;;17.90;47.40;;;;;;4946804;29;20055;-67
2021/05/10 05:55:04;;;;;;;4.63;1.42;;;17.90;47.50;;;;;;4928461;29;20040;-67
2021/05/10 05:57:29;;;;;;;5.57;1.35;;;18.00;47.50;;;;;;4945116;29;20120;-67
2021/05/10 05:59:55;;;;;;;5.78;1.48;;;18.10;47.70;;;;;;4945247;29;20047;-67
2021/05/10 06:02:20;;;;;;;6.50;1.52;;;18.20;47.50;;;;;;4945802;29;20036;-69
2021/05/10 06:04:46;;;;;;;8.57;2.00;;;18.30;47.30;;;;;;4944662;29;20023;-68
2021/05/10 06:07:11;;;;;;;6.93;1.45;;;18.30;47.30;;;;;;4947458;29;20038;-68
2021/05/10 06:09:37;;;;;;;7.00;1.40;;;18.40;47.20;;;;;;4945408;29;20052;-69
2021/05/10 06:12:03;;;;;;;5.90;1.20;;;18.50;47.90;;;;;;4945188;29;20050;-68
2021/05/10 06:14:28;;;;;;;5.50;1.20;;;18.60;46.90;;;;;;4945302;29;20040;-67
2021/05/10 06:16:54;;;;;;;6.93;1.40;;;18.70;46.70;;;;;;4944903;29;20040;-68
2021/05/10 06:19:19;;;;;;;6.82;1.30;;;18.80;46.50;;;;;;4946622;29;20047;-68
2021/05/10 06:21:45;;;;;;;9.93;1.77;;;18.90;45.30;;;;;;4945328;29;20044;-67
2021/05/10 06:24:10;;;;;;;5.10;1.50;;;19.00;45.80;;;;;;4945116;29;20059;-67
2021/05/10 06:26:36;;;;;;;3.40;1.48;;;19.10;46.20;;;;;;4945000;29;20047;-67
2021/05/10 06:29:02;;;;;;;6.50;1.50;;;19.20;46.50;;;;;;4944783;29;20035;-68
2021/05/10 06:31:27;;;;;;;5.90;1.58;;;19.30;46.50;;;;;;4946657;29;20059;-69
2021/05/10 06:33:53;;;;;;;12.02;1.75;;;19.40;46.40;;;;;;4944956;29;20039;-67
2021/05/10 06:36:18;;;;;;;13.18;1.60;;;19.50;45.80;;;;;;4944667;29;20028;-68
2021/05/10 06:38:44;;;;;;;7.55;1.45;;;19.70;45.70;;;;;;4944876;29;20360;-67
2021/05/10 06:41:11;;;;;;;13.50;1.60;;;19.80;46.40;;;;;;4944639;29;20054;-68
2021/05/10 06:43:36;;;;;;;6.47;1.40;;;19.80;45.20;;;;;;4946349;29;20039;-68
2021/05/10 06:46:02;;;;;;;7.57;1.40;;;19.80;44.70;;;;;;4944725;29;20362;-68
2021/05/10 06:48:32;;;;;;;9.73;1.40;;;20.00;44.50;;;;;;4945115;29;20044;-68
2021/05/10 06:50:58;;;;;;;8.32;1.88;;;20.10;43.70;;;;;;4944626;29;20091;-68
2021/05/10 06:53:24;;;;;;;3.05;1.20;;;20.20;43.80;;;;;;4944801;29;20239;-68
2021/05/10 06:55:52;;;;;;;6.07;1.50;;;20.30;44.00;;;;;;4944536;29;20035;-68
2021/05/10 06:58:18;;;;;;;4.82;1.70;;;20.40;44.70;;;;;;4946629;29;20040;-68
2021/05/10 07:00:44;;;;;;;2.83;1.13;;;20.60;44.50;;;;;;4927990;29;20118;-67
2021/05/10 07:03:10;;;;;;;9.73;1.38;;;20.70;43.40;;;;;;4944431;29;20044;-68
2021/05/10 07:05:35;;;;;;;6.78;1.20;;;20.80;44.00;;;;;;4944548;29;20114;-68
2021/05/10 07:08:11;;;;;;;6.75;1.13;;;21.00;44.20;;;;;;4944640;29;20099;-67
2021/05/10 07:10:37;;;;;;;5.47;1.30;;;21.20;39.50;;;;;;4946307;29;20324;-67
2021/05/10 07:13:03;;;;;;;2.97;1.15;;;21.30;40.10;;;;;;4944798;29;20032;-68
2021/05/10 07:15:28;;;;;;;3.47;1.10;;;21.40;39.80;;;;;;4944636;29;20046;-69
2021/05/10 07:18:12;;;;;;;4.95;1.58;;;21.40;39.50;;;;;;4946070;29;20031;-69
2021/05/10 07:20:38;;;;;;;12.82;3.35;;;21.60;39.50;;;;;;4948340;29;20047;-69
2021/05/10 07:23:05;;;;;;;13.02;3.95;;;21.70;39.90;;;;;;4948209;29;20036;-69
2021/05/10 07:25:32;;;;;;;7.63;1.83;;;21.80;40.80;;;;;;4949556;29;20090;-69
2021/05/10 07:27:57;;;;;;;5.57;1.45;;;21.90;38.20;;;;;;4948295;29;20032;-69
2021/05/10 07:30:23;;;;;;;5.13;1.40;;;22.00;39.70;;;;;;4948229;29;20102;-69
2021/05/10 07:32:48;;;;;;;7.95;1.33;;;22.10;39.30;;;;;;4947557;29;20048;-69
2021/05/10 07:35:14;;;;;;;6.07;2.20;;;22.20;39.40;;;;;;4947809;29;20047;-69
2021/05/10 07:37:40;;;;;;;3.10;1.00;;;22.30;39.70;;;;;;4949303;29;20043;-69
2021/05/10 07:40:06;;;;;;;5.25;1.38;;;22.40;41.50;;;;;;4948214;29;20382;-69
2021/05/10 07:42:31;;;;;;;6.65;1.30;;;22.60;40.00;;;;;;4947953;29;20039;-69
2021/05/10 07:44:58;;;;;;;6.43;1.40;;;22.70;39.10;;;;;;4947940;29;20046;-70
2021/05/10 07:47:24;;;;;;;6.53;1.52;;;22.80;40.30;;;;;;4947632;29;20040;-69
2021/05/10 07:49:49;;;;;;;3.13;1.05;;;23.10;38.50;;;;;;4947745;29;20047;-69
2021/05/10 07:52:15;;;;;;;7.45;2.13;;;23.30;36.90;;;;;;4949078;29;20043;-69
2021/05/10 07:54:40;;;;;;;2.95;1.00;;;23.30;39.60;;;;;;4947742;29;20062;-69
2021/05/10 07:57:07;;;;;;;4.07;1.40;;;23.50;40.10;;;;;;4947575;29;20040;-69
2021/05/10 07:59:33;;;;;;;4.82;1.02;;;23.80;38.00;;;;;;4947109;29;20059;-69
2021/05/10 08:02:00;;;;;;;5.00;1.17;;;23.80;36.70;;;;;;4947087;29;20083;-69
2021/05/10 08:04:25;;;;;;;4.32;1.27;;;24.10;36.70;;;;;;4931821;29;20035;-69
2021/05/10 08:06:52;;;;;;;2.38;1.00;;;24.10;36.90;;;;;;4947408;29;20044;-70
2021/05/10 08:09:17;;;;;;;4.55;1.27;;;24.30;38.40;;;;;;4930617;29;20047;-69
2021/05/10 08:11:43;;;;;;;3.17;0.98;;;24.30;37.00;;;;;;4947081;29;20200;-69
2021/05/10 08:14:09;;;;;;;4.97;1.30;;;24.40;36.50;;;;;;4929876;29;20036;-68
2021/05/10 08:16:35;;;;;;;3.17;0.90;;;24.50;37.20;;;;;;4949207;29;20047;-68
2021/05/10 08:19:00;;;;;;;3.40;1.10;;;24.50;36.10;;;;;;4947153;29;20043;-68
2021/05/10 08:21:26;;;;;;;3.70;1.02;;;24.70;36.70;;;;;;4946941;29;20035;-68
2021/05/10 08:23:51;;;;;;;3.13;1.10;;;24.80;35.30;;;;;;4947078;29;20036;-68
2021/05/10 08:26:17;;;;;;;10.23;1.20;;;24.80;34.00;;;;;;4946643;29;20331;-70
2021/05/10 08:28:42;;;;;;;3.50;1.15;;;24.90;33.90;;;;;;4948593;29;20032;-69
2021/05/10 08:31:08;;;;;;;3.08;1.20;;;25.00;34.50;;;;;;4947247;29;20243;-69
2021/05/10 08:33:33;;;;;;;2.55;0.90;;;25.10;36.20;;;;;;4946163;29;20111;-69
2021/05/10 08:35:59;;;;;;;4.60;1.08;;;25.30;32.80;;;;;;4946403;29;20091;-69
2021/05/10 08:38:24;;;;;;;4.03;1.00;;;25.40;33.60;;;;;;4946852;29;20286;-69
2021/05/10 08:40:53;;;;;;;2.10;1.02;;;25.60;33.80;;;;;;4946760;29;20031;-70
2021/05/10 08:43:20;;;;;;;5.13;1.30;;;25.70;33.80;;;;;;4948446;29;20032;-68
2021/05/10 08:45:57;;;;;;;4.60;1.10;;;25.80;33.60;;;;;;4946735;29;20035;-69
2021/05/10 08:48:23;;;;;;;3.25;1.02;;;25.90;34.50;;;;;;4946347;29;20031;-69
2021/05/10 08:50:49;;;;;;;7.82;1.30;;;26.00;34.20;;;;;;4946316;29;20036;-69
2021/05/10 08:53:15;;;;;;;3.72;1.20;;;26.10;33.10;;;;;;4929353;29;20071;-69
2021/05/10 08:55:40;;;;;;;6.25;1.20;;;26.20;34.20;;;;;;4947989;29;20256;-68
2021/05/10 08:58:08;;;;;;;3.40;1.10;;;26.20;31.70;;;;;;4946275;29;20036;-67
2021/05/10 09:00:48;;;;;;;4.78;1.23;;;26.30;32.50;;;;;;4946524;29;20058;-67
2021/05/10 09:03:13;;;;;;;6.40;1.30;;;26.30;32.20;;;;;;4946104;29;20043;-67
2021/05/10 09:05:51;;;;;;;4.30;0.90;;;26.40;33.00;;;;;;4946204;29;20393;-68
2021/05/10 09:08:17;;;;;;;5.82;1.63;;;26.50;31.60;;;;;;4929697;29;20055;-68
2021/05/10 09:11:08;;;;;;;4.22;0.90;;;26.70;31.10;;;;;;4930702;29;20034;-71
2021/05/10 09:13:39;;;;;;;4.10;0.90;;;26.90;30.70;;;;;;4946738;29;20039;-68
2021/05/10 09:16:05;;;;;;;4.00;1.20;;;27.00;30.30;;;;;;4946557;29;20042;-69
2021/05/10 09:18:31;;;;;;;4.43;1.02;;;27.10;31.70;;;;;;4946306;29;20335;-70
2021/05/10 09:21:10;;;;;;;4.28;1.10;;;27.20;29.50;;;;;;4945634;29;20036;-68
2021/05/10 09:23:36;;;;;;;4.97;1.10;;;27.30;29.60;;;;;;4945608;29;20407;-68
2021/05/10 09:26:02;;;;;;;3.63;0.82;;;27.30;28.80;;;;;;4945536;29;20032;-68
2021/05/10 09:28:28;;;;;;;4.07;1.08;;;27.30;29.70;;;;;;4930676;29;20043;-68
2021/05/10 09:30:54;;;;;;;3.58;1.10;;;27.30;30.10;;;;;;4928886;29;20032;-68
2021/05/10 09:33:22;;;;;;;5.60;1.00;;;27.40;29.40;;;;;;4945430;29;20242;-68
2021/05/10 09:35:48;;;;;;;7.38;1.10;;;27.30;30.60;;;;;;4928695;29;20040;-68
2021/05/10 09:38:15;;;;;;;6.53;1.30;;;27.30;28.30;;;;;;4945219;29;20361;-68
2021/05/10 09:40:45;;;;;;;3.28;0.80;;;27.30;28.30;;;;;;4929894;29;20039;-67
2021/05/10 09:43:13;;;;;;;5.05;1.00;;;27.40;28.60;;;;;;4946013;29;20035;-67
2021/05/10 09:45:41;;;;;;;4.13;1.23;;;27.50;29.30;;;;;;4928513;29;20043;-67
2021/05/10 09:48:17;;;;;;;3.85;1.00;;;27.60;30.80;;;;;;4928468;29;20036;-67
2021/05/10 09:51:03;;;;;;;3.75;1.20;;;27.70;30.40;;;;;;4945631;29;20040;-67
2021/05/10 09:53:32;;;;;;;4.15;1.17;;;27.80;31.80;;;;;;4945418;29;20101;-67
2021/05/10 09:55:57;;;;;;;3.42;1.10;;;27.90;33.70;;;;;;4944922;29;20036;-68
2021/05/10 09:58:24;;;;;;;3.15;1.00;;;28.00;31.10;;;;;;4929848;29;20027;-68
2021/05/10 10:00:57;;;;;;;3.38;1.02;;;28.10;28.00;;;;;;4945461;29;20051;-67
2021/05/10 10:03:30;;;;;;;3.63;1.30;;;28.20;28.40;;;;;;4944717;29;20035;-67
2021/05/10 10:06:00;;;;;;;4.78;1.05;;;28.30;28.70;;;;;;4944813;29;20067;-68
2021/05/10 10:08:26;;;;;;;5.20;1.20;;;28.40;29.50;;;;;;4945269;29;20050;-68
2021/05/10 10:10:51;;;;;;;4.65;1.30;;;28.40;28.00;;;;;;4927744;29;20370;-68
2021/05/10 10:13:20;;;;;;;6.10;1.08;;;28.50;27.70;;;;;;4929876;29;20251;-69
2021/05/10 10:15:47;;;;;;;2.72;1.00;;;28.60;29.90;;;;;;4945208;29;20039;-69
2021/05/10 10:18:14;;;;;;;3.13;1.10;;;28.70;28.00;;;;;;4928103;29;20063;-67
2021/05/10 10:20:40;;;;;;;2.58;0.93;;;28.70;27.80;;;;;;4944536;29;20298;-68
2021/05/10 10:23:07;;;;;;;5.28;1.35;;;28.70;28.80;;;;;;4927831;29;20032;-69
2021/05/10 10:25:36;;;;;;;6.78;1.10;;;28.70;28.80;;;;;;4946743;29;20051;-68
2021/05/10 10:28:03;;;;;;;5.20;1.20;;;28.80;28.20;;;;;;4928864;29;20335;-68
2021/05/10 10:30:31;;;;;;;3.75;1.13;;;29.00;30.10;;;;;;4944620;29;20066;-69
2021/05/10 10:32:59;;;;;;;7.05;1.27;;;29.10;31.00;;;;;;4944408;29;20036;-68
2021/05/10 10:35:25;;;;;;;5.72;1.25;;;29.20;28.40;;;;;;4927895;29;20039;-69
2021/05/10 10:37:51;;;;;;;6.90;1.20;;;29.20;29.30;;;;;;4912019;29;20031;-68
2021/05/10 10:40:22;;;;;;;4.90;1.00;;;29.30;27.40;;;;;;4946904;29;20267;-70
2021/05/10 10:42:48;;;;;;;3.55;1.02;;;29.40;27.40;;;;;;4945046;29;20147;-68
2021/05/10 10:45:21;;;;;;;4.28;0.90;;;29.30;27.10;;;;;;4927925;29;20335;-68
2021/05/10 10:47:50;;;;;;;4.05;1.02;;;29.30;25.80;;;;;;4944946;29;20046;-68
2021/05/10 10:50:17;;;;;;;3.85;1.23;;;29.20;28.70;;;;;;4944434;29;20043;-69
2021/05/10 10:52:53;;;;;;;2.90;0.88;;;29.30;28.60;;;;;;4949142;29;20079;-69
2021/05/10 10:55:24;;;;;;;3.88;1.10;;;29.30;27.00;;;;;;4932263;29;20035;-69
2021/05/10 10:57:49;;;;;;;3.10;1.00;;;29.30;26.90;;;;;;4948703;29;20035;-74
2021/05/10 11:00:17;;;;;;;4.97;1.13;;;29.30;30.00;;;;;;4931049;29;20051;-68
2021/05/10 11:02:47;;;;;;;5.22;1.50;;;29.40;30.10;;;;;;4948354;29;20060;-69
2021/05/10 11:05:16;;;;;;;4.25;1.15;;;29.40;27.80;;;;;;4948331;29;20042;-68
2021/05/10 11:08:03;;;;;;;4.05;1.30;;;29.70;27.70;;;;;;4949935;29;20050;-70
2021/05/10 11:10:49;;;;;;;5.07;1.00;;;29.70;25.40;;;;;;4948784;29;20032;-69
2021/05/10 11:13:28;;;;;;;3.90;1.20;;;29.70;27.90;;;;;;4948475;29;20262;-70
2021/05/10 11:15:57;;;;;;;4.30;0.98;;;29.70;27.20;;;;;;4948374;29;20079;-68
2021/05/10 11:18:55;;;;;;;6.20;1.30;;;29.70;27.50;;;;;;4931174;29;20095;-67
2021/05/10 11:21:21;;;;;;;3.67;0.90;;;29.80;26.70;;;;;;4948087;29;20040;-67
2021/05/10 11:24:10;;;;;;;4.28;1.30;;;30.00;26.00;;;;;;4947835;29;20334;-70
2021/05/10 11:26:47;;;;;;;6.43;0.98;;;30.00;28.20;;;;;;4931541;29;20362;-71
2021/05/10 11:29:24;;;;;;;3.28;0.80;;;30.10;27.30;;;;;;4948009;29;20039;-70
2021/05/10 11:32:10;;;;;;;5.25;0.90;;;30.00;25.90;;;;;;4947941;29;20055;-70
2021/05/10 11:34:37;;;;;;;4.45;1.10;;;30.00;27.10;;;;;;4936484;29;20047;-72
2021/05/10 11:37:06;;;;;;;3.55;1.40;;;30.00;25.00;;;;;;4931075;29;20043;-71
2021/05/10 11:39:33;;;;;;;6.20;1.10;;;30.10;26.20;;;;;;4947718;29;20039;-70
2021/05/10 11:42:00;;;;;;;3.67;1.10;;;30.10;27.80;;;;;;4930967;29;20251;-68
2021/05/10 11:44:37;;;;;;;3.42;0.95;;;30.20;28.70;;;;;;4930880;29;20338;-69
2021/05/10 11:47:04;;;;;;;5.93;1.08;;;30.30;26.40;;;;;;4930936;29;20070;-69
2021/05/10 11:49:29;;;;;;;6.13;1.10;;;30.20;25.90;;;;;;4949350;29;20027;-69
2021/05/10 11:51:57;;;;;;;4.95;1.02;;;30.20;26.80;;;;;;4947914;29;20132;-68
2021/05/10 11:54:23;;;;;;;6.07;1.08;;;30.20;26.90;;;;;;4947430;29;20051;-68
2021/05/10 11:56:50;;;;;;;3.13;0.98;;;30.20;27.50;;;;;;4947379;29;20035;-69
2021/05/10 11:59:31;;;;;;;3.88;0.98;;;30.30;27.20;;;;;;4947188;29;20260;-68
2021/05/10 12:01:57;;;;;;;5.22;0.90;;;30.30;25.90;;;;;;4947529;29;20067;-70
2021/05/10 12:04:30;;;;;;;5.03;0.85;;;30.40;28.00;;;;;;4948437;29;20094;-72
2021/05/10 12:06:57;;;;;;;3.67;0.82;;;30.40;26.20;;;;;;4947596;29;20331;-69
2021/05/10 12:09:44;;;;;;;5.35;0.73;;;30.50;26.40;;;;;;4947405;29;20063;-69
2021/05/10 12:12:13;;;;;;;3.58;0.80;;;30.50;26.50;;;;;;4947165;29;20043;-69
2021/05/10 12:14:40;;;;;;;4.35;0.93;;;30.60;27.90;;;;;;4946971;29;20319;-70
2021/05/10 12:17:10;;;;;;;2.55;1.00;;;30.60;26.60;;;;;;4946831;29;20032;-68
2021/05/10 12:20:06;;;;;;;5.22;0.80;;;30.60;27.40;;;;;;4948895;29;20036;-69
2021/05/10 12:22:33;;;;;;;3.45;0.95;;;30.70;24.90;;;;;;4947701;29;20038;-68
2021/05/10 12:25:06;;;;;;;6.10;0.90;;;30.60;25.20;;;;;;4947155;29;20043;-68
2021/05/10 12:27:38;;;;;;;4.75;0.80;;;30.60;25.20;;;;;;4947078;29;20039;-69
2021/05/10 12:30:21;;;;;;;4.53;0.90;;;30.60;23.90;;;;;;4930043;29;20040;-68
2021/05/10 12:32:50;;;;;;;3.88;0.80;;;30.60;25.80;;;;;;4929693;29;20043;-68
2021/05/10 12:35:17;;;;;;;3.17;1.00;;;30.60;25.70;;;;;;4946635;29;20040;-67
2021/05/10 12:37:44;;;;;;;6.05;0.88;;;30.50;22.80;;;;;;4948039;29;20319;-70
2021/05/10 12:40:10;;;;;;;4.03;0.80;;;30.60;26.90;;;;;;4947378;29;20060;-70
2021/05/10 12:42:36;;;;;;;5.25;1.23;;;30.60;24.40;;;;;;4929661;29;20040;-69
2021/05/10 12:45:07;;;;;;;3.92;1.00;;;30.60;25.70;;;;;;4946779;29;20061;-71
2021/05/10 12:47:49;;;;;;;5.18;0.88;;;30.70;26.30;;;;;;4946257;29;20350;-69
2021/05/10 12:50:39;;;;;;;5.32;0.90;;;30.70;23.50;;;;;;4929327;29;20331;-70
2021/05/10 12:53:05;;;;;;;5.10;0.98;;;30.70;25.20;;;;;;4946420;29;20071;-71